createdAt,value
2023-10-06T00:00:49.123Z,7.53
2023-10-06T00:03:18.951Z,7.00
2023-10-06T00:05:49.725Z,7.50
2023-10-06T00:08:21.589Z,7.80
2023-10-06T00:10:55.985Z,7.23
2023-10-06T00:13:30.772Z,9.03
2023-10-06T00:16:00.589Z,7.23
2023-10-06T00:18:30.876Z,8.00
2023-10-06T00:21:08.463Z,8.23
2023-10-06T00:23:40.787Z,8.57
2023-10-06T00:26:17.685Z,8.70
2023-10-06T00:28:47.865Z,8.80
2023-10-06T00:31:17.935Z,8.73
2023-10-06T00:33:47.961Z,8.50
2023-10-06T00:36:18.904Z,9.03
2023-10-06T00:38:52.661Z,8.87
2023-10-06T00:41:28.080Z,8.17
2023-10-06T00:43:58.187Z,9.03
2023-10-06T00:46:27.844Z,8.37
2023-10-06T00:48:58.678Z,9.50
2023-10-06T00:51:29.444Z,9.20
2023-10-06T00:54:00.155Z,10.30
2023-10-06T00:56:32.504Z,8.57
2023-10-06T00:59:05.474Z,10.23
2023-10-06T01:01:35.820Z,8.67
2023-10-06T01:04:09.773Z,10.10
2023-10-06T01:06:41.157Z,10.67
2023-10-06T01:09:15.975Z,10.90
2023-10-06T01:11:51.161Z,9.73
2023-10-06T01:14:23.373Z,10.23
2023-10-06T01:16:54.538Z,9.97
2023-10-06T01:19:34.609Z,9.80
2023-10-06T01:22:21.635Z,11.43
2023-10-06T01:24:54.362Z,10.93
2023-10-06T01:27:27.724Z,10.60
2023-10-06T01:30:18.024Z,11.97
2023-10-06T01:32:50.843Z,12.07
2023-10-06T01:35:25.456Z,11.50
2023-10-06T01:38:00.022Z,11.23
2023-10-06T01:40:45.159Z,11.37
2023-10-06T01:43:16.620Z,11.57
2023-10-06T01:45:47.855Z,10.60
2023-10-06T01:48:30.988Z,12.43
2023-10-06T01:51:00.717Z,11.40
2023-10-06T01:53:34.716Z,10.80
2023-10-06T01:56:09.760Z,11.70
2023-10-06T01:58:40.752Z,11.73
2023-10-06T02:01:10.632Z,11.40
2023-10-06T02:03:42.442Z,12.37
2023-10-06T02:06:17.726Z,11.40
2023-10-06T02:08:54.498Z,12.87
2023-10-06T02:11:32.163Z,11.57
2023-10-06T02:14:04.382Z,12.53
2023-10-06T02:16:34.307Z,13.00
2023-10-06T02:19:10.292Z,12.13
2023-10-06T02:21:45.851Z,12.40
2023-10-06T02:24:17.635Z,10.87
2023-10-06T02:26:58.712Z,13.03
2023-10-06T02:29:28.352Z,13.17
2023-10-06T02:32:02.709Z,11.77
2023-10-06T02:34:37.091Z,11.83
2023-10-06T02:37:07.553Z,12.07
2023-10-06T02:39:39.814Z,12.40
2023-10-06T02:42:15.561Z,14.03
2023-10-06T02:44:45.537Z,12.17
2023-10-06T02:47:15.713Z,12.63
2023-10-06T02:49:50.255Z,12.23
2023-10-06T02:52:22.329Z,13.00
2023-10-06T02:55:00.128Z,10.40
2023-10-06T02:57:36.868Z,11.37
2023-10-06T03:00:30.047Z,11.70
2023-10-06T03:03:04.541Z,11.77
2023-10-06T03:05:40.559Z,12.30
2023-10-06T03:08:11.452Z,11.27
2023-10-06T03:10:46.580Z,11.67
2023-10-06T03:13:25.703Z,11.07
2023-10-06T03:15:55.231Z,10.33
2023-10-06T03:18:24.786Z,9.87
2023-10-06T03:21:00.546Z,10.40
2023-10-06T03:23:33.440Z,10.10
2023-10-06T03:26:04.724Z,11.00
2023-10-06T03:28:38.109Z,11.17
2023-10-06T03:31:22.985Z,10.73
2023-10-06T03:33:55.871Z,9.27
2023-10-06T03:36:38.885Z,9.60
2023-10-06T03:39:12.190Z,11.30
2023-10-06T03:41:45.812Z,9.37
2023-10-06T03:44:26.660Z,10.03
2023-10-06T03:46:56.849Z,8.43
2023-10-06T03:49:27.368Z,10.37
2023-10-06T03:51:58.963Z,10.03
2023-10-06T03:54:28.538Z,9.83
2023-10-06T03:56:59.476Z,9.47
2023-10-06T03:59:31.702Z,11.90
2023-10-06T04:02:04.267Z,11.23
2023-10-06T04:04:33.916Z,11.57
2023-10-06T04:07:03.483Z,10.87
2023-10-06T04:09:34.423Z,11.73
2023-10-06T04:12:05.545Z,10.20
2023-10-06T04:14:37.713Z,11.40
2023-10-06T04:17:07.368Z,10.90
2023-10-06T04:19:37.334Z,12.13
2023-10-06T04:22:09.049Z,11.23
2023-10-06T04:24:39.274Z,11.83
2023-10-06T04:27:09.244Z,10.87
2023-10-06T04:29:42.224Z,11.83
2023-10-06T04:32:15.015Z,12.97
2023-10-06T04:34:47.362Z,13.07
2023-10-06T04:37:18.276Z,13.10
2023-10-06T04:39:47.895Z,13.30
2023-10-06T04:42:20.146Z,12.63
2023-10-06T04:44:56.323Z,9.87
2023-10-06T04:47:25.956Z,12.20
2023-10-06T04:49:55.898Z,12.47
2023-10-06T04:52:25.898Z,11.57
2023-10-06T04:54:55.453Z,12.57
2023-10-06T04:57:25.381Z,12.23
2023-10-06T05:00:00.091Z,13.23
2023-10-06T05:02:30.412Z,11.50
2023-10-06T05:04:59.989Z,11.97
2023-10-06T05:07:29.789Z,11.50
2023-10-06T05:09:59.410Z,11.90
2023-10-06T05:12:28.961Z,9.23
2023-10-06T05:15:01.451Z,12.00
2023-10-06T05:17:31.030Z,11.67
2023-10-06T05:20:00.679Z,13.43
2023-10-06T05:22:31.222Z,10.77
2023-10-06T05:25:02.891Z,9.37
2023-10-06T05:27:35.374Z,8.97
2023-10-06T05:30:08.703Z,10.27
2023-10-06T05:32:43.489Z,11.03
2023-10-06T05:35:15.609Z,10.10
2023-10-06T05:37:47.982Z,9.13
2023-10-06T05:40:17.918Z,8.40
2023-10-06T05:42:50.502Z,8.63
2023-10-06T05:45:23.278Z,8.97
2023-10-06T05:47:56.334Z,8.87
2023-10-06T05:50:30.921Z,8.47
2023-10-06T05:53:04.406Z,8.60
2023-10-06T05:55:36.328Z,9.23
2023-10-06T05:58:10.806Z,7.93
2023-10-06T06:00:51.676Z,9.70
2023-10-06T06:03:22.158Z,9.00
2023-10-06T06:05:53.541Z,8.97
2023-10-06T06:08:23.394Z,8.40
2023-10-06T06:10:53.670Z,8.17
2023-10-06T06:13:23.470Z,9.43
2023-10-06T06:15:55.914Z,7.93
2023-10-06T06:18:28.782Z,7.80
2023-10-06T06:21:00.142Z,7.73
2023-10-06T06:23:29.695Z,7.60
2023-10-06T06:25:59.250Z,8.40
2023-10-06T06:28:28.884Z,7.23
2023-10-06T06:31:06.450Z,7.40
2023-10-06T06:33:36.457Z,9.63
2023-10-06T06:36:06.792Z,7.20
2023-10-06T06:38:40.810Z,8.10
2023-10-06T06:41:10.442Z,7.50
2023-10-06T06:43:45.110Z,14.87
2023-10-06T06:46:18.317Z,10.57
2023-10-06T06:48:48.331Z,10.03
2023-10-06T06:51:17.868Z,9.97
2023-10-06T06:53:48.365Z,8.20
2023-10-06T06:56:18.519Z,7.00
2023-10-06T06:58:50.041Z,9.43
2023-10-06T07:01:22.390Z,7.40
2023-10-06T07:03:52.136Z,8.23
2023-10-06T07:06:22.423Z,12.07
2023-10-06T07:08:51.984Z,7.40
2023-10-06T07:11:21.587Z,6.10
2023-10-06T07:13:51.241Z,10.80
2023-10-06T07:16:26.168Z,7.67
2023-10-06T07:18:56.061Z,9.13
2023-10-06T07:21:26.524Z,8.90
2023-10-06T07:23:58.157Z,6.00
2023-10-06T07:26:27.909Z,5.50
2023-10-06T07:28:58.039Z,7.50
2023-10-06T07:31:30.240Z,12.13
2023-10-06T07:34:00.520Z,11.73
2023-10-06T07:36:30.150Z,8.07
2023-10-06T07:38:59.876Z,7.10
2023-10-06T07:41:29.834Z,6.97
2023-10-06T07:43:59.808Z,7.43
2023-10-06T07:46:32.698Z,7.17
2023-10-06T07:49:02.762Z,6.10
2023-10-06T07:51:35.051Z,5.60
2023-10-06T07:54:04.977Z,6.73
2023-10-06T07:56:36.119Z,6.73
2023-10-06T07:59:06.937Z,6.27
2023-10-06T08:01:39.815Z,7.20
2023-10-06T08:04:09.927Z,6.73
2023-10-06T08:06:40.101Z,6.47
2023-10-06T08:09:11.861Z,6.17
2023-10-06T08:11:44.720Z,7.50
2023-10-06T08:14:14.805Z,6.30
2023-10-06T08:16:47.212Z,6.80
2023-10-06T08:19:16.975Z,8.10
2023-10-06T08:21:46.744Z,4.90
2023-10-06T08:24:17.048Z,6.57
2023-10-06T08:26:46.970Z,19.07
2023-10-06T08:29:16.792Z,12.03
2023-10-06T08:31:50.888Z,7.37
2023-10-06T08:34:22.834Z,13.27
2023-10-06T08:36:52.374Z,15.73
2023-10-06T08:39:22.708Z,6.97
2023-10-06T08:41:53.820Z,7.87
2023-10-06T08:44:24.353Z,7.87
2023-10-06T08:47:02.123Z,6.60
2023-10-06T08:49:36.935Z,7.33
2023-10-06T08:52:07.837Z,6.07
2023-10-06T08:54:38.089Z,10.33
2023-10-06T08:57:07.756Z,10.27
2023-10-06T08:59:37.373Z,7.90
2023-10-06T09:02:09.810Z,8.37
2023-10-06T09:04:40.652Z,7.30
2023-10-06T09:07:13.526Z,15.60
2023-10-06T09:09:44.672Z,12.90
2023-10-06T09:12:26.753Z,10.90
2023-10-06T09:14:58.241Z,14.03
2023-10-06T09:17:37.739Z,11.17
2023-10-06T09:20:20.201Z,6.87
2023-10-06T09:22:54.054Z,10.40
2023-10-06T09:25:23.712Z,8.57
2023-10-06T09:28:05.445Z,9.07
2023-10-06T09:30:51.583Z,8.57
2023-10-06T09:33:27.157Z,10.60
2023-10-06T09:36:08.561Z,6.20
2023-10-06T09:38:39.203Z,6.73
2023-10-06T09:41:10.704Z,10.50
2023-10-06T09:43:41.555Z,6.67
2023-10-06T09:46:12.697Z,6.87
2023-10-06T09:48:46.979Z,6.33
2023-10-06T09:51:18.489Z,5.57
2023-10-06T09:53:48.617Z,6.90
2023-10-06T09:56:18.927Z,8.33
2023-10-06T09:58:52.506Z,7.10
2023-10-06T10:01:25.609Z,5.80
2023-10-06T10:04:00.232Z,7.30
2023-10-06T10:06:31.770Z,6.23
2023-10-06T10:09:01.279Z,5.80
2023-10-06T10:11:40.557Z,7.10
2023-10-06T10:14:21.674Z,6.07
2023-10-06T10:17:08.464Z,6.80
2023-10-06T10:19:40.936Z,7.67
2023-10-06T10:22:14.793Z,5.80
2023-10-06T10:27:18.621Z,6.67
2023-10-06T10:29:48.719Z,7.40
2023-10-06T10:32:24.561Z,7.73
2023-10-06T10:35:14.803Z,7.13
2023-10-06T10:38:04.839Z,15.97
2023-10-06T10:40:48.897Z,9.10
2023-10-06T10:43:19.298Z,8.10
2023-10-06T10:45:52.051Z,11.43
2023-10-06T10:48:23.694Z,7.93
2023-10-06T10:51:07.345Z,7.67
2023-10-06T10:53:39.232Z,11.90
2023-10-06T10:56:14.538Z,8.97
2023-10-06T10:58:58.116Z,12.20
2023-10-06T11:01:31.608Z,8.20
2023-10-06T11:04:35.598Z,10.33
2023-10-06T11:07:19.460Z,9.40
2023-10-06T11:09:53.683Z,9.03
2023-10-06T11:12:29.757Z,10.40
2023-10-06T11:15:04.781Z,8.40
2023-10-06T11:17:36.486Z,7.53
2023-10-06T11:20:15.055Z,9.23
2023-10-06T11:22:56.150Z,10.37
2023-10-06T11:25:28.965Z,10.50
2023-10-06T11:27:59.838Z,13.00
2023-10-06T11:30:30.362Z,10.30
2023-10-06T11:33:01.658Z,10.80
2023-10-06T11:35:31.473Z,9.53
2023-10-06T11:38:04.017Z,8.80
2023-10-06T11:40:33.657Z,10.30
2023-10-06T11:43:13.916Z,13.87
2023-10-06T11:45:45.381Z,9.00
2023-10-06T11:48:30.860Z,9.20
2023-10-06T11:51:07.946Z,9.23
2023-10-06T11:53:41.950Z,9.60
2023-10-06T11:56:13.617Z,10.13
2023-10-06T11:58:45.579Z,7.27
2023-10-06T12:01:34.458Z,8.50
2023-10-06T12:06:56.588Z,11.70
2023-10-06T12:09:30.959Z,10.43
2023-10-06T12:12:01.118Z,8.57
2023-10-06T12:14:32.673Z,10.60
2023-10-06T12:17:02.542Z,9.33
2023-10-06T12:19:32.460Z,11.80
2023-10-06T12:22:03.764Z,31.40
2023-10-06T12:24:35.914Z,8.27
2023-10-06T12:27:05.738Z,12.30
2023-10-06T12:29:35.650Z,10.93
2023-10-06T12:32:05.717Z,10.67
2023-10-06T12:34:35.559Z,9.87
2023-10-06T12:37:05.622Z,10.57
2023-10-06T12:39:38.268Z,7.40
2023-10-06T12:42:13.169Z,8.33
2023-10-06T12:44:44.214Z,9.20
2023-10-06T12:47:14.947Z,11.27
2023-10-06T12:49:49.907Z,13.37
2023-10-06T12:52:19.572Z,9.63
2023-10-06T12:54:52.855Z,9.80
2023-10-06T12:57:23.120Z,13.10
2023-10-06T12:59:52.699Z,13.60
2023-10-06T13:02:26.523Z,12.83
2023-10-06T13:04:58.756Z,11.37
2023-10-06T13:07:32.392Z,10.30
2023-10-06T13:10:08.348Z,8.03
2023-10-06T13:12:41.140Z,8.10
2023-10-06T13:15:14.217Z,7.80
2023-10-06T13:17:44.429Z,9.37
2023-10-06T13:20:17.606Z,7.43
2023-10-06T13:22:48.970Z,9.10
2023-10-06T13:25:21.315Z,9.50
2023-10-06T13:27:51.008Z,6.50
2023-10-06T13:30:22.098Z,8.73
2023-10-06T13:32:58.747Z,7.07
2023-10-06T13:35:28.640Z,8.00
2023-10-06T13:37:58.667Z,7.70
2023-10-06T13:40:31.038Z,15.90
2023-10-06T13:43:01.334Z,8.50
2023-10-06T13:45:32.471Z,8.67
2023-10-06T13:48:05.105Z,6.60
2023-10-06T13:50:37.853Z,7.30
2023-10-06T13:53:08.560Z,9.80
2023-10-06T13:55:40.761Z,8.63
2023-10-06T13:58:10.381Z,7.20
2023-10-06T14:00:41.831Z,7.10
2023-10-06T14:03:14.971Z,6.50
2023-10-06T14:05:51.008Z,6.70
2023-10-06T14:08:22.377Z,7.17
2023-10-06T14:10:54.988Z,5.63
2023-10-06T14:13:29.138Z,6.97
2023-10-06T14:16:10.645Z,6.30
2023-10-06T14:18:41.855Z,4.50
2023-10-06T14:21:13.908Z,5.40
2023-10-06T14:23:47.652Z,5.40
2023-10-06T14:26:24.723Z,4.87
2023-10-06T14:28:54.390Z,4.43
2023-10-06T14:31:27.358Z,4.83
2023-10-06T14:34:21.794Z,4.40
2023-10-06T14:36:58.753Z,3.80
2023-10-06T14:39:40.754Z,4.30
2023-10-06T14:42:25.342Z,5.20
2023-10-06T14:45:07.349Z,4.00
2023-10-06T14:47:37.112Z,4.20
2023-10-06T14:50:13.215Z,3.93
2023-10-06T14:52:42.859Z,4.50
2023-10-06T14:55:14.940Z,3.97
2023-10-06T14:57:47.349Z,3.93
2023-10-06T15:00:17.852Z,4.00
2023-10-06T15:02:52.060Z,3.67
2023-10-06T15:05:23.691Z,4.00
2023-10-06T15:07:53.502Z,4.00
2023-10-06T15:10:23.109Z,3.57
2023-10-06T15:12:58.530Z,3.70
2023-10-06T15:15:29.483Z,3.53
2023-10-06T15:18:15.657Z,4.00
2023-10-06T15:20:48.889Z,3.93
2023-10-06T15:23:19.455Z,4.10
2023-10-06T15:25:57.957Z,3.63
2023-10-06T15:28:38.854Z,3.40
2023-10-06T15:31:09.661Z,5.10
2023-10-06T15:33:39.578Z,3.37
2023-10-06T15:36:10.591Z,3.43
2023-10-06T15:38:40.112Z,3.77
2023-10-06T15:41:11.917Z,4.03
2023-10-06T15:43:45.423Z,3.43
2023-10-06T15:46:16.607Z,3.33
2023-10-06T15:48:49.868Z,3.40
2023-10-06T15:51:21.703Z,3.73
2023-10-06T15:53:52.255Z,2.70
2023-10-06T15:56:24.827Z,3.90
2023-10-06T15:58:58.574Z,3.97
2023-10-06T16:01:28.427Z,3.50
2023-10-06T16:03:59.228Z,3.53
2023-10-06T16:06:29.027Z,3.60
2023-10-06T16:09:01.602Z,3.63
2023-10-06T16:11:31.607Z,3.77
2023-10-06T16:14:06.477Z,3.40
2023-10-06T16:16:38.654Z,4.50
2023-10-06T16:19:10.458Z,18.83
2023-10-06T16:21:43.016Z,21.20
2023-10-06T16:24:15.512Z,11.43
2023-10-06T16:26:46.273Z,7.03
2023-10-06T16:29:18.624Z,5.27
2023-10-06T16:31:48.880Z,6.40
2023-10-06T16:34:20.252Z,17.53
2023-10-06T16:36:49.984Z,15.70
2023-10-06T16:39:23.132Z,6.90
2023-10-06T16:41:54.807Z,12.10
2023-10-06T16:44:27.135Z,12.57
2023-10-06T16:46:57.014Z,5.57
2023-10-06T16:49:29.258Z,5.83
2023-10-06T16:52:00.455Z,9.40
2023-10-06T16:54:32.776Z,25.73
2023-10-06T16:57:02.362Z,17.77
2023-10-06T16:59:34.713Z,12.53
2023-10-06T17:02:04.324Z,9.97
2023-10-06T17:04:33.922Z,6.10
2023-10-06T17:07:03.449Z,6.47
2023-10-06T17:09:37.792Z,12.00
2023-10-06T17:12:11.241Z,8.03
2023-10-06T17:14:43.495Z,8.97
2023-10-06T17:17:13.266Z,11.40
2023-10-06T17:19:43.223Z,8.63
2023-10-06T17:22:12.769Z,12.87
2023-10-06T17:24:43.302Z,10.37
2023-10-06T17:27:12.883Z,9.73
2023-10-06T17:29:46.325Z,10.00
2023-10-06T17:32:15.938Z,13.50
2023-10-06T17:34:45.480Z,13.53
2023-10-06T17:37:30.414Z,8.60
2023-10-06T17:40:00.698Z,8.93
2023-10-06T17:42:31.020Z,13.10
2023-10-06T17:45:04.094Z,13.43
2023-10-06T17:47:34.042Z,9.37
2023-10-06T17:50:03.736Z,11.60
2023-10-06T17:52:33.392Z,9.67
2023-10-06T17:55:03.001Z,17.60
2023-10-06T18:00:04.871Z,14.03
2023-10-06T18:02:34.556Z,16.63
2023-10-06T18:05:06.039Z,12.83
2023-10-06T18:07:35.996Z,14.77
2023-10-06T18:10:09.767Z,18.00
2023-10-06T18:12:42.251Z,17.40
2023-10-06T18:15:16.564Z,16.63
2023-10-06T18:17:49.094Z,13.27
2023-10-06T18:20:19.453Z,16.80
2023-10-06T18:22:49.019Z,12.77
2023-10-06T18:25:18.718Z,15.90
2023-10-06T18:27:48.366Z,18.37
2023-10-06T18:30:20.611Z,14.87
2023-10-06T18:32:51.329Z,16.07
2023-10-06T18:35:20.927Z,16.57
2023-10-06T18:37:50.585Z,15.07
2023-10-06T18:40:20.587Z,18.03
2023-10-06T18:42:50.183Z,13.27
2023-10-06T18:45:22.468Z,12.17
2023-10-06T18:47:53.359Z,15.87
2023-10-06T18:50:23.259Z,16.17
2023-10-06T18:53:05.171Z,13.00
2023-10-06T18:55:35.035Z,18.70
2023-10-06T18:58:04.652Z,19.10
2023-10-06T19:00:36.828Z,18.80
2023-10-06T19:03:07.294Z,13.10
2023-10-06T19:05:38.150Z,13.60
2023-10-06T19:08:09.229Z,14.23
2023-10-06T19:10:40.156Z,11.80
2023-10-06T19:13:09.896Z,9.70
2023-10-06T19:15:48.421Z,12.30
2023-10-06T19:18:18.640Z,11.47
2023-10-06T19:20:49.054Z,12.30
2023-10-06T19:23:19.646Z,10.70
2023-10-06T19:25:55.327Z,11.37
2023-10-06T19:28:26.420Z,11.37
2023-10-06T19:31:03.080Z,10.37
2023-10-06T19:33:33.555Z,11.00
2023-10-06T19:36:05.695Z,10.90
2023-10-06T19:38:36.109Z,10.80
2023-10-06T19:41:06.105Z,10.80
2023-10-06T19:43:35.947Z,11.80
2023-10-06T19:46:11.577Z,12.07
2023-10-06T19:48:41.418Z,10.93
2023-10-06T19:51:11.082Z,10.80
2023-10-06T19:53:41.362Z,10.97
2023-10-06T19:56:10.927Z,10.80
2023-10-06T19:58:40.562Z,12.43
2023-10-06T20:01:13.854Z,10.03
2023-10-06T20:03:44.442Z,11.30
2023-10-06T20:06:14.074Z,11.80
2023-10-06T20:08:43.695Z,11.60
2023-10-06T20:11:13.576Z,11.07
2023-10-06T20:13:43.232Z,11.20
2023-10-06T20:16:17.643Z,12.60
2023-10-06T20:18:47.343Z,8.17
2023-10-06T20:21:19.086Z,9.27
2023-10-06T20:23:52.572Z,11.67
2023-10-06T20:26:22.202Z,10.90
2023-10-06T20:28:51.820Z,8.93
2023-10-06T20:31:24.541Z,9.43
2023-10-06T20:33:54.463Z,10.20
2023-10-06T20:36:24.151Z,9.47
2023-10-06T20:38:54.219Z,4.50
2023-10-06T20:41:24.394Z,8.53
2023-10-06T20:43:53.979Z,9.80
2023-10-06T20:46:29.981Z,8.00
2023-10-06T20:48:59.978Z,7.43
2023-10-06T20:51:31.570Z,8.70
2023-10-06T20:54:01.144Z,8.80
2023-10-06T20:56:30.790Z,8.80
2023-10-06T20:59:00.392Z,9.77
2023-10-06T21:01:33.306Z,7.23
2023-10-06T21:04:05.798Z,8.40
2023-10-06T21:06:37.492Z,9.70
2023-10-06T21:09:08.548Z,8.87
2023-10-06T21:11:38.593Z,8.43
2023-10-06T21:14:13.540Z,9.43
2023-10-06T21:16:46.538Z,9.60
2023-10-06T21:19:16.482Z,8.23
2023-10-06T21:21:46.091Z,9.43
2023-10-06T21:24:15.716Z,9.40
2023-10-06T21:26:45.244Z,9.53
2023-10-06T21:29:15.063Z,8.77
2023-10-06T21:31:48.182Z,8.70
2023-10-06T21:34:17.971Z,10.00
2023-10-06T21:36:47.617Z,10.63
2023-10-06T21:39:20.480Z,9.00
2023-10-06T21:41:50.042Z,9.67
2023-10-06T21:44:19.897Z,6.40
2023-10-06T21:46:52.150Z,10.43
2023-10-06T21:49:21.818Z,9.83
2023-10-06T21:51:51.335Z,6.23
2023-10-06T21:54:20.857Z,8.40
2023-10-06T21:56:50.431Z,8.40
2023-10-06T21:59:19.950Z,8.27
2023-10-06T22:01:53.776Z,7.67
2023-10-06T22:04:23.644Z,8.57
2023-10-06T22:06:54.064Z,8.07
2023-10-06T22:09:24.586Z,9.53
2023-10-06T22:11:54.694Z,9.33
2023-10-06T22:14:25.295Z,9.13
2023-10-06T22:16:59.639Z,10.27
2023-10-06T22:19:30.154Z,10.30
2023-10-06T22:22:00.341Z,9.47
2023-10-06T22:24:29.917Z,9.60
2023-10-06T22:27:00.077Z,8.77
2023-10-06T22:29:30.562Z,8.90
2023-10-06T22:32:02.832Z,10.23
2023-10-06T22:34:33.321Z,8.80
2023-10-06T22:37:09.582Z,12.10
2023-10-06T22:39:46.804Z,9.30
2023-10-06T22:42:16.352Z,10.67
2023-10-06T22:44:46.751Z,11.77
2023-10-06T22:47:19.279Z,9.40
2023-10-06T22:49:51.968Z,9.87
2023-10-06T22:52:21.651Z,10.53
2023-10-06T22:54:52.749Z,10.17
2023-10-06T22:57:22.352Z,10.00
2023-10-06T22:59:52.232Z,9.37
2023-10-06T23:02:24.499Z,8.17
2023-10-06T23:04:54.174Z,7.07
2023-10-06T23:07:24.468Z,7.67
2023-10-06T23:09:54.138Z,8.57
2023-10-06T23:12:23.688Z,9.27
2023-10-06T23:14:53.268Z,9.33
2023-10-06T23:17:25.890Z,9.63
2023-10-06T23:19:56.811Z,8.40
2023-10-06T23:22:26.955Z,9.23
2023-10-06T23:25:02.574Z,9.00
2023-10-06T23:27:32.131Z,8.97
2023-10-06T23:30:01.844Z,9.30
2023-10-06T23:32:34.365Z,10.17
2023-10-06T23:35:04.179Z,8.37
2023-10-06T23:37:33.992Z,9.03
2023-10-06T23:40:06.087Z,10.37
2023-10-06T23:42:36.447Z,8.23
2023-10-06T23:45:08.096Z,8.83
2023-10-06T23:47:41.718Z,8.77
2023-10-06T23:50:15.537Z,7.13
2023-10-06T23:52:48.354Z,10.10
2023-10-06T23:55:19.165Z,8.97
2023-10-06T23:57:51.567Z,10.60
